dimanche 9 mars 2014

ALERTE SPOTTING 09/03/14

744 EC-KQC Pullmantur Air
   PLM6121/PLM710P  07h55/10h50

77W F-GSQR Air France
 (vol special après match de rugby à Edinbourgh)
   dpt AF370V 08h40 (pour EDI)
 arv AF4011  13h55  (de EDI)

332 F-HCAT Corsair International
 (vol special après match de rugby à Edinbourgh)
   dpt CRL080 09h35 (pour EDI)
 arv  CRL815  15H00   (de EDI)

73H CN-RGN RAM (sticker 50th 737)
   AT780/AT749   11h15/12h15
  AT740/AT781  19h25/20h40

IL9 CU-T1250 Cubana
   CU444/CU445  20h30/22h30


Manque les prévisions/immats UX / BE / AZ / TP / BA / AH
*** Heures en Local Time **
Prévisions matinales soumises à modifications de dernières minute. Voir le log du mois pour la version 'définitive' de la journée: http://www.airkalo.com/ORLYAVIATION/Logdumois.html

le TAF de la journée:


METAR: LFPO 090330Z 18002KT CAVOK 07/01 Q1024 NOSIG=
TAF LONG: LFPO 082300Z 0900/1006 12005KT CAVOK BECMG 0900/0902 7000 NSC
TEMPO 0903/0908 3000 MIFG BECMG 0907/0909 CAVOK TEMPO 0912/0916
20005KT BECMG 0922/0924 6000 NSC TEMPO 1000/1006 3000 MIFG=